createdAt,value
2022-08-25T00:03:29.756Z,4.25
2022-08-25T00:07:37.926Z,4.45
2022-08-25T00:11:40.502Z,4.72
2022-08-25T00:15:42.317Z,4.80
2022-08-25T00:19:44.014Z,5.13
2022-08-25T00:23:46.567Z,4.25
2022-08-25T00:27:48.628Z,4.88
2022-08-25T00:31:50.433Z,5.18
2022-08-25T00:35:52.805Z,5.32
2022-08-25T00:39:57.039Z,5.50
2022-08-25T00:44:00.988Z,5.38
2022-08-25T00:48:03.169Z,5.05
2022-08-25T00:52:10.622Z,5.05
2022-08-25T00:56:14.188Z,5.40
2022-08-25T01:00:19.298Z,4.95
2022-08-25T01:04:22.181Z,5.45
2022-08-25T01:08:27.527Z,5.18
2022-08-25T01:12:30.959Z,5.70
2022-08-25T01:16:38.137Z,5.80
2022-08-25T01:20:40.386Z,5.45
2022-08-25T01:25:07.667Z,5.90
2022-08-25T01:29:22.450Z,5.68
2022-08-25T01:33:24.371Z,5.57
2022-08-25T01:37:26.097Z,5.60
2022-08-25T01:41:31.536Z,6.40
2022-08-25T01:45:38.496Z,6.15
2022-08-25T01:49:40.730Z,5.95
2022-08-25T01:53:44.132Z,5.75
2022-08-25T01:57:46.264Z,5.47
2022-08-25T02:01:48.019Z,6.10
2022-08-25T02:05:49.786Z,5.60
2022-08-25T02:09:51.501Z,5.65
2022-08-25T02:13:53.417Z,5.57
2022-08-25T02:17:55.134Z,5.70
2022-08-25T02:21:58.136Z,5.10
2022-08-25T02:25:59.828Z,5.35
2022-08-25T02:30:01.852Z,5.75
2022-08-25T02:34:04.654Z,5.53
2022-08-25T02:38:07.221Z,5.30
2022-08-25T02:42:09.078Z,5.57
2022-08-25T02:46:12.411Z,5.90
2022-08-25T02:50:14.565Z,5.90
2022-08-25T02:54:16.548Z,5.50
2022-08-25T02:58:18.494Z,6.20
2022-08-25T03:02:20.397Z,5.78
2022-08-25T03:06:25.425Z,6.13
2022-08-25T03:10:27.492Z,6.05
2022-08-25T03:14:30.226Z,5.70
2022-08-25T03:18:32.467Z,5.95
2022-08-25T03:22:34.267Z,6.00
2022-08-25T03:26:54.039Z,6.18
2022-08-25T03:30:55.906Z,5.97
2022-08-25T03:34:58.450Z,6.22
2022-08-25T03:39:00.566Z,6.43
2022-08-25T03:43:02.587Z,5.65
2022-08-25T03:47:04.501Z,6.35
2022-08-25T03:51:06.407Z,6.35
2022-08-25T03:55:10.807Z,6.55
2022-08-25T03:59:12.864Z,6.70
2022-08-25T04:03:14.682Z,6.20
2022-08-25T04:07:16.797Z,6.35
2022-08-25T04:11:22.240Z,6.97
2022-08-25T04:15:28.087Z,6.43
2022-08-25T04:19:32.045Z,6.53
2022-08-25T04:23:33.779Z,6.35
2022-08-25T04:27:37.243Z,6.40
2022-08-25T04:31:41.762Z,6.05
2022-08-25T04:35:50.628Z,6.97
2022-08-25T04:39:52.972Z,6.93
2022-08-25T04:43:59.113Z,7.80
2022-08-25T04:48:00.941Z,7.43
2022-08-25T04:52:03.261Z,6.97
2022-08-25T04:56:08.251Z,7.38
2022-08-25T05:00:11.407Z,7.13
2022-08-25T05:04:27.886Z,7.70
2022-08-25T05:08:32.129Z,7.55
2022-08-25T05:12:34.337Z,7.00
2022-08-25T05:16:38.372Z,6.70
2022-08-25T05:20:40.206Z,6.75
2022-08-25T05:24:42.016Z,6.65
2022-08-25T05:28:43.853Z,6.47
2022-08-25T05:32:45.553Z,5.75
2022-08-25T05:36:48.537Z,7.03
2022-08-25T05:40:57.936Z,6.72
2022-08-25T05:44:59.871Z,7.10
2022-08-25T05:49:01.961Z,6.50
2022-08-25T05:53:03.709Z,7.18
2022-08-25T05:57:06.098Z,8.00
2022-08-25T06:01:27.402Z,7.65
2022-08-25T06:05:29.626Z,8.13
2022-08-25T06:09:31.461Z,7.60
2022-08-25T06:13:33.626Z,8.20
2022-08-25T06:17:35.471Z,7.55
2022-08-25T06:21:40.826Z,8.65
2022-08-25T06:25:49.773Z,8.10
2022-08-25T06:29:51.479Z,8.05
2022-08-25T06:33:58.676Z,8.73
2022-08-25T06:38:00.543Z,9.30
2022-08-25T06:42:02.291Z,10.50
2022-08-25T06:46:13.369Z,9.43
2022-08-25T06:50:15.892Z,11.32
2022-08-25T06:54:17.650Z,11.18
2022-08-25T06:58:19.362Z,11.95
2022-08-25T07:02:21.999Z,12.10
2022-08-25T07:06:25.636Z,11.68
2022-08-25T07:10:27.352Z,12.30
2022-08-25T07:14:32.414Z,11.77
2022-08-25T07:18:34.655Z,11.60
2022-08-25T07:22:36.371Z,10.85
2022-08-25T07:26:42.054Z,10.82
2022-08-25T07:30:43.938Z,10.82
2022-08-25T07:35:04.359Z,10.70
2022-08-25T07:39:06.811Z,11.25
2022-08-25T07:43:08.772Z,10.48
2022-08-25T07:47:10.683Z,10.88
2022-08-25T07:51:14.529Z,10.40
2022-08-25T07:55:17.985Z,11.70
2022-08-25T07:59:19.808Z,10.77
2022-08-25T08:03:42.281Z,10.05
2022-08-25T08:07:44.478Z,9.40
2022-08-25T08:11:53.931Z,9.60
2022-08-25T08:15:56.263Z,9.57
2022-08-25T08:19:59.095Z,9.50
2022-08-25T08:24:01.479Z,9.00
2022-08-25T08:28:03.527Z,9.52
2022-08-25T08:32:09.099Z,10.02
2022-08-25T08:36:12.469Z,11.15
2022-08-25T08:40:18.327Z,10.05
2022-08-25T08:44:37.016Z,9.68
2022-08-25T08:48:52.449Z,9.50
2022-08-25T08:53:03.067Z,10.27
2022-08-25T08:57:16.605Z,9.70
2022-08-25T09:01:29.356Z,8.57
2022-08-25T09:05:41.849Z,8.88
2022-08-25T09:09:46.334Z,8.25
2022-08-25T09:14:15.335Z,9.02
2022-08-25T09:18:50.834Z,8.60
2022-08-25T09:23:10.959Z,9.93
2022-08-25T09:27:35.459Z,8.70
2022-08-25T09:31:39.287Z,8.23
2022-08-25T09:35:41.765Z,8.93
2022-08-25T09:39:43.507Z,7.90
2022-08-25T09:43:53.613Z,7.97
2022-08-25T09:47:55.285Z,9.15
2022-08-25T09:52:26.368Z,8.65
2022-08-25T09:56:34.530Z,7.78
2022-08-25T10:00:36.828Z,7.40
2022-08-25T10:04:40.590Z,7.80
2022-08-25T10:08:45.265Z,7.80
2022-08-25T10:12:51.352Z,8.55
2022-08-25T10:17:10.895Z,8.50
2022-08-25T10:21:15.962Z,8.20
2022-08-25T10:25:28.082Z,9.25
2022-08-25T10:30:07.325Z,8.23
2022-08-25T10:34:22.514Z,6.85
2022-08-25T10:38:43.782Z,6.82
2022-08-25T10:43:10.714Z,6.75
2022-08-25T10:47:27.410Z,7.35
2022-08-25T10:51:46.745Z,7.75
2022-08-25T10:56:03.210Z,7.00
2022-08-25T11:00:16.281Z,6.13
2022-08-25T11:04:48.807Z,5.57
2022-08-25T11:08:55.508Z,5.20
2022-08-25T11:13:00.897Z,6.75
2022-08-25T11:17:21.956Z,5.80
2022-08-25T11:21:36.408Z,6.47
2022-08-25T11:25:42.909Z,6.13
2022-08-25T11:29:49.233Z,5.60
2022-08-25T11:33:52.581Z,6.10
2022-08-25T11:38:18.854Z,5.30
2022-08-25T11:42:25.888Z,6.10
2022-08-25T11:46:42.619Z,5.22
2022-08-25T11:51:33.856Z,6.13
2022-08-25T11:55:38.298Z,6.00
2022-08-25T12:00:07.338Z,6.15
2022-08-25T12:04:30.949Z,6.45
2022-08-25T12:08:48.531Z,6.15
2022-08-25T12:13:04.814Z,6.90
2022-08-25T12:17:36.722Z,6.65
2022-08-25T12:21:38.463Z,6.68
2022-08-25T12:25:47.109Z,6.38
2022-08-25T12:29:52.178Z,6.90
2022-08-25T12:34:17.268Z,6.93
2022-08-25T12:38:28.223Z,6.75
2022-08-25T12:42:35.224Z,5.90
2022-08-25T12:46:39.348Z,5.75
2022-08-25T12:50:44.508Z,6.07
2022-08-25T12:54:59.471Z,5.32
2022-08-25T12:59:19.851Z,5.88
2022-08-25T13:03:54.018Z,5.63
2022-08-25T13:07:59.871Z,5.60
2022-08-25T13:12:31.125Z,5.40
2022-08-25T13:16:33.945Z,5.72
2022-08-25T13:20:35.898Z,5.82
2022-08-25T13:24:42.240Z,6.00
2022-08-25T13:28:50.590Z,5.15
2022-08-25T13:32:52.441Z,4.88
2022-08-25T13:37:12.744Z,4.85
2022-08-25T13:41:29.444Z,4.95
2022-08-25T13:45:41.061Z,4.90
2022-08-25T13:49:47.895Z,5.35
2022-08-25T13:54:02.754Z,5.30
2022-08-25T13:58:07.056Z,5.38
2022-08-25T14:02:39.062Z,5.75
2022-08-25T14:06:41.334Z,5.90
2022-08-25T14:10:44.781Z,5.57
2022-08-25T14:15:18.027Z,5.82
2022-08-25T14:19:23.298Z,5.47
2022-08-25T14:23:28.714Z,5.32
2022-08-25T14:27:30.461Z,5.35
2022-08-25T14:31:36.226Z,5.32
2022-08-25T14:35:38.187Z,5.85
2022-08-25T14:39:40.466Z,4.85
2022-08-25T14:43:45.982Z,4.85
2022-08-25T14:47:49.889Z,5.22
2022-08-25T14:51:52.233Z,5.20
2022-08-25T14:55:58.856Z,5.30
2022-08-25T15:00:01.330Z,5.43
2022-08-25T15:04:19.489Z,5.10
2022-08-25T15:08:39.764Z,4.78
2022-08-25T15:12:47.764Z,5.20
2022-08-25T15:16:57.427Z,5.18
2022-08-25T15:20:59.262Z,4.95
2022-08-25T15:25:01.841Z,5.20
2022-08-25T15:29:04.085Z,5.35
2022-08-25T15:33:05.798Z,4.53
2022-08-25T15:37:15.268Z,4.70
2022-08-25T15:41:17.048Z,5.32
2022-08-25T15:45:19.097Z,5.30
2022-08-25T15:49:23.443Z,5.43
2022-08-25T15:53:26.238Z,5.72
2022-08-25T15:57:28.760Z,5.60
2022-08-25T16:01:30.769Z,5.63
2022-08-25T16:05:32.641Z,5.22
2022-08-25T16:09:35.844Z,4.93
2022-08-25T16:13:37.906Z,5.30
2022-08-25T16:17:46.941Z,5.43
2022-08-25T16:21:48.825Z,5.30
2022-08-25T16:25:52.505Z,5.10
2022-08-25T16:29:54.262Z,5.93
2022-08-25T16:33:58.266Z,5.75
2022-08-25T16:38:10.200Z,5.70
2022-08-25T16:42:14.188Z,5.72
2022-08-25T16:46:17.869Z,5.82
2022-08-25T16:50:19.649Z,6.63
2022-08-25T16:54:40.499Z,5.90
2022-08-25T16:58:42.244Z,6.60
2022-08-25T17:02:51.410Z,7.57
2022-08-25T17:06:53.084Z,6.43
2022-08-25T17:11:14.958Z,6.82
2022-08-25T17:15:22.334Z,6.55
2022-08-25T17:19:27.773Z,6.55
2022-08-25T17:23:29.739Z,6.47
2022-08-25T17:27:31.524Z,7.13
2022-08-25T17:31:35.149Z,6.45
2022-08-25T17:35:42.525Z,6.30
2022-08-25T17:39:44.266Z,6.38
2022-08-25T17:43:47.698Z,7.05
2022-08-25T17:47:50.684Z,6.60
2022-08-25T17:51:52.539Z,6.95
2022-08-25T17:56:07.404Z,6.20
2022-08-25T18:00:12.058Z,6.93
2022-08-25T18:04:17.958Z,7.85
2022-08-25T18:08:22.340Z,6.55
2022-08-25T18:12:34.145Z,7.32
2022-08-25T18:16:35.868Z,7.00
2022-08-25T18:20:37.634Z,6.93
2022-08-25T18:24:39.993Z,6.70
2022-08-25T18:28:43.735Z,7.18
2022-08-25T18:32:45.784Z,6.95
2022-08-25T18:36:47.835Z,7.57
2022-08-25T18:40:55.732Z,7.05
2022-08-25T18:44:57.449Z,7.45
2022-08-25T18:49:00.627Z,7.85
2022-08-25T18:53:02.698Z,7.40
2022-08-25T18:57:08.738Z,8.55
2022-08-25T19:01:14.011Z,8.88
2022-08-25T19:05:17.368Z,8.73
2022-08-25T19:09:19.058Z,8.30
2022-08-25T19:13:22.611Z,8.88
2022-08-25T19:17:24.878Z,8.70
2022-08-25T19:21:26.630Z,8.38
2022-08-25T19:25:33.227Z,7.32
2022-08-25T19:29:36.447Z,8.15
2022-08-25T19:33:45.061Z,8.10
2022-08-25T19:37:47.385Z,9.05
2022-08-25T19:41:49.738Z,9.23
2022-08-25T19:45:51.715Z,9.20
2022-08-25T19:53:57.988Z,8.98
2022-08-25T19:58:00.861Z,8.65
2022-08-25T20:02:03.868Z,8.60
2022-08-25T20:06:05.809Z,9.30
2022-08-25T20:10:14.206Z,8.77
2022-08-25T20:14:16.252Z,8.63
2022-08-25T20:18:18.719Z,8.48
2022-08-25T20:22:25.893Z,9.25
2022-08-25T20:26:29.253Z,10.00
2022-08-25T20:30:31.035Z,9.52
2022-08-25T20:34:33.027Z,9.95
2022-08-25T20:38:35.642Z,9.60
2022-08-25T20:42:37.507Z,11.05
2022-08-25T20:46:42.556Z,9.05
2022-08-25T20:50:44.325Z,9.40
2022-08-25T20:54:49.625Z,9.35
2022-08-25T20:58:52.341Z,9.50
2022-08-25T21:02:54.172Z,8.90
2022-08-25T21:06:57.626Z,8.63
2022-08-25T21:10:59.341Z,9.45
2022-08-25T21:15:01.091Z,9.18
2022-08-25T21:19:03.213Z,8.98
2022-08-25T21:23:08.040Z,9.40
2022-08-25T21:27:10.484Z,9.40
2022-08-25T21:31:13.797Z,9.52
2022-08-25T21:35:15.845Z,8.88
2022-08-25T21:39:17.791Z,11.07
2022-08-25T21:43:19.745Z,9.63
2022-08-25T21:47:23.203Z,10.32
2022-08-25T21:51:30.806Z,9.10
2022-08-25T21:55:41.832Z,9.98
2022-08-25T21:59:43.906Z,9.77
2022-08-25T22:03:47.203Z,9.60
2022-08-25T22:07:49.056Z,8.55
2022-08-25T22:11:51.323Z,10.02
2022-08-25T22:15:53.369Z,9.82
2022-08-25T22:19:55.711Z,10.60
2022-08-25T22:23:57.567Z,10.73
2022-08-25T22:27:59.537Z,10.18
2022-08-25T22:32:02.840Z,9.63
2022-08-25T22:36:16.040Z,9.73
2022-08-25T22:40:18.476Z,10.10
2022-08-25T22:44:20.256Z,9.90
2022-08-25T22:48:21.962Z,9.30
2022-08-25T22:52:32.021Z,10.32
2022-08-25T22:56:37.713Z,9.65
2022-08-25T23:00:40.282Z,9.73
2022-08-25T23:04:44.618Z,10.80
2022-08-25T23:08:47.962Z,10.25
2022-08-25T23:12:49.707Z,11.10
2022-08-25T23:16:51.481Z,9.93
2022-08-25T23:21:11.982Z,10.38
2022-08-25T23:25:17.305Z,10.32
2022-08-25T23:29:19.518Z,10.80
2022-08-25T23:33:21.447Z,11.07
2022-08-25T23:37:23.138Z,10.60
2022-08-25T23:41:26.201Z,11.13
2022-08-25T23:45:28.295Z,10.30
2022-08-25T23:49:32.917Z,10.88
2022-08-25T23:53:35.782Z,11.07
2022-08-25T23:57:37.526Z,10.18
